createdAt,value
2019-05-07T00:02:28.975Z,72.60
2019-05-07T00:05:02.519Z,72.70
2019-05-07T00:10:25.094Z,73.20
2019-05-07T00:12:56.171Z,73.10
2019-05-07T00:15:27.049Z,72.70
2019-05-07T00:18:03.178Z,73.10
2019-05-07T00:20:34.363Z,73.10
2019-05-07T00:23:06.458Z,73.10
2019-05-07T00:25:36.299Z,73.00
2019-05-07T00:28:08.404Z,73.20
2019-05-07T00:30:38.435Z,73.40
2019-05-07T00:33:09.352Z,73.50
2019-05-07T00:35:44.619Z,73.50
2019-05-07T00:38:17.219Z,73.20
2019-05-07T00:40:52.473Z,72.80
2019-05-07T00:43:23.915Z,73.00
2019-05-07T00:45:57.975Z,73.00
2019-05-07T00:48:28.535Z,72.80
2019-05-07T00:51:02.211Z,72.70
2019-05-07T00:53:33.599Z,72.60
2019-05-07T00:56:04.747Z,73.00
2019-05-07T00:58:36.069Z,72.70
2019-05-07T01:01:07.076Z,72.70
2019-05-07T01:03:38.236Z,72.70
2019-05-07T01:06:12.977Z,72.60
2019-05-07T01:08:43.976Z,72.60
2019-05-07T01:11:16.328Z,72.70
2019-05-07T01:13:47.414Z,73.00
2019-05-07T01:16:18.516Z,72.80
2019-05-07T01:18:53.625Z,73.10
2019-05-07T01:21:25.440Z,72.60
2019-05-07T01:23:57.912Z,72.80
2019-05-07T01:26:33.038Z,72.50
2019-05-07T01:29:05.384Z,72.80
2019-05-07T01:31:38.438Z,72.50
2019-05-07T01:34:12.897Z,72.70
2019-05-07T01:36:45.221Z,73.00
2019-05-07T01:39:16.148Z,73.00
2019-05-07T01:41:52.455Z,73.10
2019-05-07T01:44:22.602Z,73.30
2019-05-07T01:46:53.491Z,73.30
2019-05-07T01:49:24.739Z,73.40
2019-05-07T01:51:56.285Z,73.60
2019-05-07T01:54:27.514Z,73.70
2019-05-07T01:56:58.547Z,74.10
2019-05-07T01:59:32.243Z,74.30
2019-05-07T02:02:03.872Z,74.10
2019-05-07T02:04:44.945Z,74.60
2019-05-07T02:07:17.399Z,74.40
2019-05-07T02:10:02.838Z,74.90
2019-05-07T02:12:34.833Z,75.00
2019-05-07T02:15:08.608Z,75.50
2019-05-07T02:17:39.613Z,75.40
2019-05-07T02:20:13.166Z,75.50
2019-05-07T02:22:48.077Z,75.60
2019-05-07T02:25:22.295Z,75.30
2019-05-07T02:27:53.526Z,75.80
2019-05-07T02:30:24.086Z,75.90
2019-05-07T02:32:58.898Z,76.30
2019-05-07T02:35:33.042Z,76.10
2019-05-07T02:38:05.177Z,76.40
2019-05-07T02:40:37.978Z,76.60
2019-05-07T02:46:21.455Z,76.70
2019-05-07T02:48:42.842Z,76.70
2019-05-07T02:51:16.262Z,76.90
2019-05-07T02:53:47.606Z,77.20
2019-05-07T02:56:17.449Z,77.20
2019-05-07T02:58:48.346Z,77.40
2019-05-07T03:01:22.448Z,77.60
2019-05-07T03:03:52.880Z,77.70
2019-05-07T03:06:24.057Z,77.90
2019-05-07T03:08:55.144Z,77.80
2019-05-07T03:11:28.180Z,77.70
2019-05-07T03:14:03.192Z,77.80
2019-05-07T03:16:42.590Z,77.90
2019-05-07T03:19:07.776Z,78.10
2019-05-07T03:21:58.986Z,78.10
2019-05-07T03:24:46.337Z,78.10
2019-05-07T03:27:17.318Z,78.50
2019-05-07T03:29:49.840Z,78.60
2019-05-07T03:32:39.624Z,78.80
2019-05-07T03:35:15.699Z,79.00
2019-05-07T03:37:44.103Z,79.00
2019-05-07T03:40:14.514Z,78.90
2019-05-07T03:42:45.762Z,79.20
2019-05-07T03:45:23.197Z,79.30
2019-05-07T03:48:03.515Z,79.00
2019-05-07T03:50:33.807Z,79.10
2019-05-07T03:53:04.947Z,79.30
2019-05-07T03:55:37.423Z,79.40
2019-05-07T03:58:14.279Z,79.50
2019-05-07T04:00:46.613Z,79.90
2019-05-07T04:03:19.691Z,80.10
2019-05-07T04:05:53.182Z,80.00
2019-05-07T04:08:25.675Z,80.00
2019-05-07T04:10:56.690Z,80.00
2019-05-07T04:13:27.367Z,80.00
2019-05-07T04:15:58.080Z,80.00
2019-05-07T04:18:32.637Z,80.00
2019-05-07T04:21:03.655Z,80.00
2019-05-07T04:23:34.382Z,79.70
2019-05-07T04:26:13.118Z,79.50
2019-05-07T04:28:54.660Z,79.30
2019-05-07T04:31:28.757Z,79.20
2019-05-07T04:34:03.417Z,79.00
2019-05-07T04:36:34.533Z,78.60
2019-05-07T04:39:07.046Z,78.20
2019-05-07T04:41:38.397Z,78.40
2019-05-07T04:44:08.396Z,78.20
2019-05-07T04:46:47.110Z,78.50
2019-05-07T04:49:16.407Z,78.20
2019-05-07T04:51:54.861Z,78.00
2019-05-07T04:54:27.137Z,77.90
2019-05-07T04:56:59.476Z,77.70
2019-05-07T04:59:33.307Z,77.70
2019-05-07T05:02:04.837Z,77.60
2019-05-07T05:04:36.103Z,76.80
2019-05-07T05:07:06.287Z,75.90
2019-05-07T05:09:38.221Z,75.20
2019-05-07T05:12:13.183Z,74.10
2019-05-07T05:14:44.082Z,74.00
2019-05-07T05:17:13.957Z,73.50
2019-05-07T05:19:46.208Z,72.30
2019-05-07T05:22:27.760Z,72.30
2019-05-07T05:25:17.522Z,71.60
2019-05-07T05:27:53.992Z,71.20
2019-05-07T05:30:42.408Z,70.70
2019-05-07T05:33:14.191Z,69.80
2019-05-07T05:35:52.594Z,69.30
2019-05-07T05:38:25.102Z,69.40
2019-05-07T05:40:56.205Z,69.70
2019-05-07T05:43:36.509Z,68.80
2019-05-07T05:46:12.300Z,68.40
2019-05-07T05:48:43.663Z,67.70
2019-05-07T05:51:14.552Z,68.20
2019-05-07T05:53:57.964Z,67.80
2019-05-07T05:56:38.687Z,67.60
2019-05-07T05:59:12.101Z,68.00
2019-05-07T06:01:47.227Z,67.10
2019-05-07T06:04:28.047Z,66.80
2019-05-07T06:07:13.945Z,67.30
2019-05-07T06:09:44.116Z,65.90
2019-05-07T06:12:32.972Z,66.00
2019-05-07T06:15:14.446Z,66.40
2019-05-07T06:17:56.187Z,65.40
2019-05-07T06:20:42.863Z,64.70
2019-05-07T06:23:14.529Z,65.10
2019-05-07T06:25:45.980Z,64.70
2019-05-07T06:28:18.636Z,65.00
2019-05-07T06:30:52.526Z,65.00
2019-05-07T06:33:23.257Z,65.30
2019-05-07T06:35:54.569Z,64.70
2019-05-07T06:38:25.683Z,63.90
2019-05-07T06:40:58.944Z,65.20
2019-05-07T06:43:42.224Z,64.50
2019-05-07T06:46:14.632Z,63.20
2019-05-07T06:48:46.393Z,62.30
2019-05-07T06:51:18.608Z,62.90
2019-05-07T06:53:53.480Z,64.00
2019-05-07T06:56:24.747Z,63.60
2019-05-07T06:58:57.840Z,62.70
2019-05-07T07:01:35.241Z,62.60
2019-05-07T07:04:14.735Z,63.20
2019-05-07T07:06:49.253Z,63.00
2019-05-07T07:09:39.877Z,62.20
2019-05-07T07:12:16.075Z,62.50
2019-05-07T07:14:48.872Z,61.60
2019-05-07T07:17:22.315Z,62.60
2019-05-07T07:19:55.019Z,62.10
2019-05-07T07:22:27.568Z,62.00
2019-05-07T07:25:02.385Z,62.50
2019-05-07T07:27:32.166Z,62.90
2019-05-07T07:32:56.919Z,62.50
2019-05-07T07:35:32.202Z,61.10
2019-05-07T07:38:05.259Z,60.90
2019-05-07T07:40:36.956Z,61.40
2019-05-07T07:43:09.199Z,61.20
2019-05-07T07:45:42.103Z,60.50
2019-05-07T07:48:13.888Z,62.30
2019-05-07T07:50:47.011Z,60.50
2019-05-07T07:53:18.945Z,60.60
2019-05-07T07:56:06.794Z,59.50
2019-05-07T07:58:38.193Z,60.00
2019-05-07T08:01:12.220Z,59.60
2019-05-07T08:03:47.277Z,59.20
2019-05-07T08:06:22.573Z,59.50
2019-05-07T08:08:53.045Z,59.30
2019-05-07T08:11:24.569Z,59.20
2019-05-07T08:13:57.753Z,58.90
2019-05-07T08:16:27.901Z,59.10
2019-05-07T08:19:02.792Z,58.40
2019-05-07T08:21:33.408Z,59.70
2019-05-07T08:24:04.384Z,60.00
2019-05-07T08:26:38.744Z,58.60
2019-05-07T08:29:11.910Z,59.60
2019-05-07T08:31:43.531Z,59.10
2019-05-07T08:34:25.177Z,60.10
2019-05-07T08:37:01.849Z,58.30
2019-05-07T08:39:36.470Z,59.50
2019-05-07T08:42:09.221Z,58.50
2019-05-07T08:44:43.117Z,58.90
2019-05-07T08:47:16.437Z,58.40
2019-05-07T08:49:47.830Z,57.70
2019-05-07T08:52:23.386Z,57.60
2019-05-07T08:54:55.391Z,59.00
2019-05-07T09:00:17.301Z,58.00
2019-05-07T09:02:47.333Z,57.70
2019-05-07T09:05:22.082Z,57.90
2019-05-07T09:07:55.235Z,57.80
2019-05-07T09:10:26.086Z,57.10
2019-05-07T09:15:46.865Z,55.80
2019-05-07T09:18:17.241Z,56.10
2019-05-07T09:20:47.243Z,56.80
2019-05-07T09:23:19.394Z,57.30
2019-05-07T09:25:49.339Z,57.70
2019-05-07T09:28:22.307Z,55.90
2019-05-07T09:30:55.429Z,55.90
2019-05-07T09:33:32.038Z,56.50
2019-05-07T09:36:02.331Z,56.80
2019-05-07T09:38:35.309Z,54.30
2019-05-07T09:41:07.172Z,55.30
2019-05-07T09:43:42.435Z,53.40
2019-05-07T09:46:13.430Z,54.50
2019-05-07T09:48:44.226Z,54.30
2019-05-07T09:51:15.253Z,53.30
2019-05-07T09:53:48.037Z,53.50
2019-05-07T09:56:19.139Z,53.50
2019-05-07T09:58:53.045Z,53.40
2019-05-07T10:01:25.671Z,53.10
2019-05-07T10:06:44.715Z,51.70
2019-05-07T10:09:15.745Z,52.60
2019-05-07T10:11:52.456Z,53.00
2019-05-07T10:14:22.581Z,52.30
2019-05-07T10:16:54.146Z,53.20
2019-05-07T10:19:23.999Z,53.50
2019-05-07T10:21:55.089Z,53.00
2019-05-07T10:24:31.493Z,52.10
2019-05-07T10:27:06.379Z,52.80
2019-05-07T10:29:38.700Z,52.30
2019-05-07T10:32:12.863Z,53.30
2019-05-07T10:34:44.089Z,51.60
2019-05-07T10:37:15.319Z,49.70
2019-05-07T10:39:51.857Z,50.20
2019-05-07T10:42:23.884Z,50.50
2019-05-07T10:44:56.354Z,51.30
2019-05-07T10:47:41.787Z,50.70
2019-05-07T10:50:33.156Z,48.80
2019-05-07T10:52:52.828Z,49.30
2019-05-07T10:55:22.942Z,47.50
2019-05-07T10:57:55.225Z,49.80
2019-05-07T11:00:28.640Z,48.80
2019-05-07T11:02:59.586Z,48.40
2019-05-07T11:05:32.624Z,49.50
2019-05-07T11:08:04.829Z,50.10
2019-05-07T11:10:36.132Z,49.60
2019-05-07T11:13:09.959Z,48.30
2019-05-07T11:15:42.785Z,47.20
2019-05-07T11:18:18.136Z,47.60
2019-05-07T11:20:50.459Z,45.90
2019-05-07T11:23:22.318Z,45.40
2019-05-07T11:25:52.638Z,46.50
2019-05-07T11:28:25.312Z,45.70
2019-05-07T11:30:56.278Z,45.80
2019-05-07T11:33:28.474Z,46.60
2019-05-07T11:35:59.585Z,47.50
2019-05-07T11:38:33.152Z,48.30
2019-05-07T11:41:03.493Z,49.20
2019-05-07T11:43:54.044Z,49.90
2019-05-07T11:46:38.608Z,51.40
2019-05-07T11:49:16.456Z,48.00
2019-05-07T11:51:51.714Z,46.30
2019-05-07T11:54:24.105Z,46.80
2019-05-07T11:56:55.490Z,47.00
2019-05-07T11:59:27.036Z,48.20
2019-05-07T12:01:59.566Z,49.50
2019-05-07T12:04:31.858Z,48.90
2019-05-07T12:07:04.938Z,49.30
2019-05-07T12:09:37.156Z,49.60
2019-05-07T12:12:08.411Z,50.50
2019-05-07T12:14:38.311Z,51.20
2019-05-07T12:17:09.246Z,51.50
2019-05-07T12:19:43.854Z,53.00
2019-05-07T12:22:14.697Z,52.60
2019-05-07T12:24:47.181Z,52.90
2019-05-07T12:27:20.163Z,53.10
2019-05-07T12:29:54.190Z,53.20
2019-05-07T12:32:38.637Z,52.80
2019-05-07T12:35:13.548Z,53.40
2019-05-07T12:37:47.852Z,53.30
2019-05-07T12:40:16.903Z,53.50
2019-05-07T12:42:52.399Z,53.60
2019-05-07T12:45:26.865Z,55.10
2019-05-07T12:47:57.805Z,55.80
2019-05-07T12:50:28.769Z,57.60
2019-05-07T12:53:02.069Z,59.20
2019-05-07T12:55:37.367Z,60.60
2019-05-07T12:58:07.253Z,61.20
2019-05-07T13:00:45.929Z,62.00
2019-05-07T13:03:34.372Z,62.90
2019-05-07T13:06:05.677Z,63.90
2019-05-07T13:08:35.534Z,64.00
2019-05-07T13:11:07.137Z,64.80
2019-05-07T13:13:42.358Z,63.90
2019-05-07T13:16:13.468Z,64.20
2019-05-07T13:18:44.416Z,64.90
2019-05-07T13:21:16.801Z,64.90
2019-05-07T13:23:46.739Z,65.70
2019-05-07T13:26:19.016Z,63.90
2019-05-07T13:28:53.188Z,63.90
2019-05-07T13:31:23.432Z,63.20
2019-05-07T13:33:55.427Z,63.50
2019-05-07T13:36:27.968Z,63.70
2019-05-07T13:39:03.537Z,62.50
2019-05-07T13:41:44.642Z,62.00
2019-05-07T13:44:33.463Z,62.60
2019-05-07T13:47:06.945Z,62.80
2019-05-07T13:49:39.315Z,63.10
2019-05-07T13:52:13.831Z,63.00
2019-05-07T13:54:45.309Z,63.10
2019-05-07T13:57:17.576Z,63.30
2019-05-07T13:59:47.455Z,64.60
2019-05-07T14:02:22.782Z,64.60
2019-05-07T14:04:53.787Z,63.10
2019-05-07T14:07:26.032Z,62.60
2019-05-07T14:09:58.338Z,62.40
2019-05-07T14:12:28.176Z,62.90
2019-05-07T14:14:58.380Z,62.70
2019-05-07T14:17:28.569Z,62.20
2019-05-07T14:20:01.870Z,62.40
2019-05-07T14:22:32.583Z,60.50
2019-05-07T14:25:04.823Z,58.50
2019-05-07T14:27:39.405Z,56.90
2019-05-07T14:30:13.509Z,57.00
2019-05-07T14:32:52.597Z,57.70
2019-05-07T14:35:32.250Z,55.40
2019-05-07T14:38:07.738Z,55.10
2019-05-07T14:40:38.782Z,55.70
2019-05-07T14:43:16.400Z,56.20
2019-05-07T14:45:47.449Z,57.30
2019-05-07T16:50:05.974Z,62.50
2019-05-07T16:52:38.527Z,63.00
2019-05-07T16:55:12.308Z,63.20
2019-05-07T16:57:45.105Z,63.20
2019-05-07T17:00:22.191Z,63.60
2019-05-07T17:02:54.922Z,64.10
2019-05-07T17:05:26.573Z,64.40
2019-05-07T17:08:02.404Z,64.30
2019-05-07T17:10:34.020Z,64.50
2019-05-07T17:13:05.426Z,64.70
2019-05-07T17:15:38.211Z,64.50
2019-05-07T17:18:11.749Z,65.30
2019-05-07T17:20:42.980Z,65.20
2019-05-07T17:23:14.274Z,65.90
2019-05-07T17:25:45.396Z,66.10
2019-05-07T17:28:17.940Z,66.00
2019-05-07T17:30:52.299Z,66.00
2019-05-07T17:33:24.253Z,66.20
2019-05-07T17:35:55.459Z,66.00
2019-05-07T17:38:29.595Z,66.10
2019-05-07T17:41:10.753Z,66.50
2019-05-07T17:43:37.332Z,67.40
2019-05-07T17:46:07.530Z,66.90
2019-05-07T17:48:39.608Z,66.90
2019-05-07T17:51:12.538Z,67.70
2019-05-07T17:53:56.720Z,67.70
2019-05-07T17:56:16.160Z,68.10
2019-05-07T17:58:47.738Z,68.20
2019-05-07T18:01:19.156Z,68.60
2019-05-07T18:03:54.006Z,69.10
2019-05-07T18:06:28.876Z,69.00
2019-05-07T18:09:02.763Z,69.20
2019-05-07T18:11:33.298Z,69.70
2019-05-07T18:14:07.380Z,69.90
2019-05-07T18:16:58.156Z,69.60
2019-05-07T18:19:30.042Z,69.70
2019-05-07T18:22:04.332Z,69.90
2019-05-07T18:24:35.350Z,69.80
2019-05-07T18:27:08.109Z,70.30
2019-05-07T18:29:39.598Z,70.20
2019-05-07T18:32:13.073Z,70.20
2019-05-07T18:34:44.375Z,70.10
2019-05-07T18:37:15.142Z,70.30
2019-05-07T18:39:48.312Z,70.60
2019-05-07T18:42:22.151Z,71.00
2019-05-07T18:44:52.623Z,70.80
2019-05-07T18:47:26.227Z,71.30
2019-05-07T18:49:56.257Z,71.60
2019-05-07T18:52:29.600Z,71.00
2019-05-07T18:55:02.680Z,70.80
2019-05-07T18:57:33.554Z,71.60
2019-05-07T19:00:05.278Z,71.20
2019-05-07T19:02:37.711Z,71.40
2019-05-07T19:05:08.835Z,71.90
2019-05-07T19:07:41.563Z,72.10
2019-05-07T19:10:14.818Z,72.30
2019-05-07T19:12:52.635Z,72.40
2019-05-07T19:15:26.633Z,72.40
2019-05-07T19:17:59.329Z,73.00
2019-05-07T19:20:32.773Z,73.20
2019-05-07T19:23:05.650Z,73.60
2019-05-07T19:25:41.918Z,74.20
2019-05-07T19:28:14.702Z,74.70
2019-05-07T19:30:43.350Z,74.80
2019-05-07T19:33:18.012Z,74.60
2019-05-07T19:35:52.587Z,74.30
2019-05-07T19:38:24.580Z,74.70
2019-05-07T19:40:55.964Z,74.80
2019-05-07T19:43:28.501Z,75.10
2019-05-07T19:45:59.856Z,75.60
2019-05-07T19:48:32.491Z,75.80
2019-05-07T19:51:04.321Z,75.80
2019-05-07T19:53:36.139Z,75.70
2019-05-07T19:59:07.801Z,76.10
2019-05-07T20:01:42.450Z,76.30
2019-05-07T20:04:13.385Z,76.50
2019-05-07T20:06:43.312Z,76.10
2019-05-07T20:09:15.886Z,75.90
2019-05-07T20:11:47.389Z,76.20
2019-05-07T20:14:19.609Z,76.60
2019-05-07T20:16:52.999Z,76.80
2019-05-07T20:19:24.592Z,76.90
2019-05-07T20:21:55.766Z,76.80
2019-05-07T20:24:27.950Z,76.80
2019-05-07T20:26:59.655Z,77.10
2019-05-07T20:29:32.365Z,77.10
2019-05-07T20:32:02.469Z,76.90
2019-05-07T20:34:33.320Z,77.10
2019-05-07T20:37:04.483Z,77.20
2019-05-07T20:42:26.098Z,77.60
2019-05-07T20:44:56.133Z,77.90
2019-05-07T20:47:27.074Z,78.00
2019-05-07T20:49:58.370Z,78.20
2019-05-07T20:52:28.763Z,78.30
2019-05-07T20:55:06.137Z,78.40
2019-05-07T20:57:38.966Z,78.70
2019-05-07T21:00:16.928Z,79.10
2019-05-07T21:02:48.343Z,79.30
2019-05-07T21:05:22.665Z,79.50
2019-05-07T21:07:54.924Z,79.80
2019-05-07T21:10:28.889Z,79.80
2019-05-07T21:13:01.065Z,80.00
2019-05-07T21:15:32.353Z,80.00
2019-05-07T21:18:02.479Z,80.10
2019-05-07T21:20:33.549Z,80.40
2019-05-07T21:23:07.252Z,80.50
2019-05-07T21:25:43.611Z,80.60
2019-05-07T21:28:12.153Z,80.80
2019-05-07T21:30:43.508Z,80.80
2019-05-07T21:33:14.767Z,80.90
2019-05-07T21:35:47.108Z,81.00
2019-05-07T21:38:18.448Z,81.10
2019-05-07T21:40:50.138Z,81.10
2019-05-07T21:43:22.250Z,81.10
2019-05-07T21:45:53.706Z,81.20
2019-05-07T21:48:24.806Z,81.20
2019-05-07T21:50:59.478Z,81.30
2019-05-07T21:56:24.295Z,81.50
2019-05-07T21:58:57.897Z,81.40
2019-05-07T22:01:32.576Z,81.60
2019-05-07T22:04:04.358Z,81.50
2019-05-07T22:06:36.671Z,81.80
2019-05-07T22:09:08.923Z,81.90
2019-05-07T22:11:40.087Z,82.20
2019-05-07T22:14:10.097Z,82.50
2019-05-07T22:16:42.694Z,82.50
2019-05-07T22:19:14.341Z,82.40
2019-05-07T22:21:45.781Z,82.40
2019-05-07T22:24:15.780Z,82.40
2019-05-07T22:26:45.806Z,82.60
2019-05-07T22:29:15.803Z,82.50
2019-05-07T22:31:57.413Z,82.50
2019-05-07T22:34:32.574Z,82.40
2019-05-07T22:37:03.678Z,82.40
2019-05-07T22:39:36.196Z,82.20
2019-05-07T22:42:07.393Z,82.20
2019-05-07T22:44:39.063Z,82.20
2019-05-07T22:47:23.227Z,82.00
2019-05-07T22:49:54.170Z,82.20
2019-05-07T22:52:25.598Z,82.20
2019-05-07T22:54:56.609Z,82.20
2019-05-07T22:57:36.955Z,82.20
2019-05-07T23:00:12.293Z,82.10
2019-05-07T23:02:43.088Z,82.20
2019-05-07T23:05:15.586Z,82.60
2019-05-07T23:07:46.089Z,82.90
2019-05-07T23:10:17.513Z,82.90
2019-05-07T23:12:48.632Z,83.20
2019-05-07T23:15:18.944Z,83.10
2019-05-07T23:17:48.934Z,83.00
2019-05-07T23:20:24.151Z,83.00
2019-05-07T23:22:53.819Z,83.10
2019-05-07T23:25:25.159Z,83.10
2019-05-07T23:27:57.432Z,83.20
2019-05-07T23:30:32.958Z,83.30
2019-05-07T23:33:04.001Z,83.40
2019-05-07T23:35:36.228Z,83.60
2019-05-07T23:38:07.844Z,83.80
2019-05-07T23:40:52.557Z,83.90
2019-05-07T23:43:23.678Z,83.80
2019-05-07T23:45:53.776Z,83.80
2019-05-07T23:48:32.111Z,83.80
2019-05-07T23:51:03.736Z,83.80
2019-05-07T23:53:33.845Z,83.80
2019-05-07T23:56:06.759Z,83.90
2019-05-07T23:58:41.829Z,84.10
